createdAt,value
2019-06-20T00:02:10.612Z,47.80
2019-06-20T00:04:41.333Z,47.58
2019-06-20T00:07:12.083Z,47.90
2019-06-20T00:09:42.937Z,48.29
2019-06-20T00:12:13.690Z,47.87
2019-06-20T00:14:47.347Z,48.22
2019-06-20T00:17:18.267Z,48.17
2019-06-20T00:19:49.024Z,48.71
2019-06-20T00:22:21.408Z,49.32
2019-06-20T00:24:52.460Z,49.86
2019-06-20T00:27:23.279Z,50.41
2019-06-20T00:29:54.315Z,50.62
2019-06-20T00:32:25.052Z,51.27
2019-06-20T00:34:56.002Z,51.56
2019-06-20T00:37:26.809Z,51.50
2019-06-20T00:39:57.563Z,51.93
2019-06-20T00:42:28.466Z,51.45
2019-06-20T00:44:58.885Z,51.08
2019-06-20T00:47:29.564Z,51.48
2019-06-20T00:50:00.397Z,51.26
2019-06-20T00:52:31.223Z,50.62
2019-06-20T00:55:01.724Z,50.88
2019-06-20T00:57:32.190Z,50.48
2019-06-20T01:00:03.542Z,51.23
2019-06-20T01:02:34.377Z,52.22
2019-06-20T01:05:06.749Z,52.29
2019-06-20T01:07:37.477Z,52.93
2019-06-20T01:10:09.383Z,53.61
2019-06-20T01:12:40.195Z,55.94
2019-06-20T01:15:11.127Z,55.94
2019-06-20T01:17:41.969Z,55.17
2019-06-20T01:20:13.934Z,55.01
2019-06-20T01:22:44.353Z,57.20
2019-06-20T01:25:15.383Z,58.66
2019-06-20T01:27:46.207Z,60.22
2019-06-20T01:30:16.941Z,60.44
2019-06-20T01:32:47.701Z,60.19
2019-06-20T01:35:18.639Z,60.59
2019-06-20T01:37:49.371Z,61.32
2019-06-20T01:40:20.207Z,62.29
2019-06-20T01:42:50.717Z,63.21
2019-06-20T01:45:21.572Z,64.06
2019-06-20T01:47:52.602Z,64.17
2019-06-20T01:50:23.513Z,64.51
2019-06-20T01:52:54.274Z,64.65
2019-06-20T01:55:25.209Z,64.80
2019-06-20T01:57:55.946Z,64.60
2019-06-20T02:00:47.969Z,64.57
2019-06-20T02:03:19.038Z,64.64
2019-06-20T02:05:49.852Z,65.56
2019-06-20T02:08:20.913Z,65.18
2019-06-20T02:10:51.719Z,65.87
2019-06-20T02:13:22.587Z,65.98
2019-06-20T02:15:53.050Z,66.42
2019-06-20T02:18:23.855Z,66.07
2019-06-20T02:20:58.222Z,66.60
2019-06-20T02:23:29.110Z,66.21
2019-06-20T02:25:59.597Z,66.22
2019-06-20T02:28:30.101Z,66.47
2019-06-20T02:31:00.563Z,67.01
2019-06-20T02:33:31.229Z,66.91
2019-06-20T02:36:01.725Z,67.02
2019-06-20T02:38:32.585Z,67.06
2019-06-20T02:41:03.076Z,67.10
2019-06-20T02:43:33.517Z,67.02
2019-06-20T02:46:04.063Z,67.18
2019-06-20T02:48:34.901Z,66.83
2019-06-20T02:51:05.753Z,67.02
2019-06-20T02:53:37.107Z,67.44
2019-06-20T02:56:07.830Z,67.96
2019-06-20T02:58:38.263Z,67.96
2019-06-20T03:01:09.097Z,68.05
2019-06-20T03:03:40.223Z,68.19
2019-06-20T03:06:10.979Z,68.24
2019-06-20T03:08:41.722Z,68.52
2019-06-20T03:11:12.533Z,68.71
2019-06-20T03:13:43.379Z,69.25
2019-06-20T03:16:14.223Z,69.44
2019-06-20T03:18:44.954Z,69.34
2019-06-20T03:21:15.415Z,69.23
2019-06-20T03:23:46.246Z,69.55
2019-06-20T03:26:17.599Z,69.19
2019-06-20T03:28:48.563Z,69.33
2019-06-20T03:31:19.011Z,69.12
2019-06-20T03:33:49.801Z,69.07
2019-06-20T03:36:20.619Z,69.24
2019-06-20T03:38:51.987Z,68.75
2019-06-20T03:41:22.435Z,68.88
2019-06-20T03:43:52.815Z,68.23
2019-06-20T03:46:23.531Z,68.26
2019-06-20T03:48:54.370Z,68.90
2019-06-20T03:51:25.223Z,68.29
2019-06-20T03:53:55.937Z,68.08
2019-06-20T03:56:26.438Z,68.19
2019-06-20T03:58:56.825Z,67.83
2019-06-20T04:01:27.646Z,67.77
2019-06-20T04:03:58.007Z,67.85
2019-06-20T04:06:28.697Z,68.36
2019-06-20T04:08:59.154Z,67.87
2019-06-20T04:11:29.869Z,67.69
2019-06-20T04:14:00.617Z,67.57
2019-06-20T04:16:31.393Z,67.05
2019-06-20T04:19:01.826Z,66.80
2019-06-20T04:21:32.307Z,66.50
2019-06-20T04:24:02.694Z,66.68
2019-06-20T04:26:33.899Z,66.01
2019-06-20T04:29:04.704Z,66.47
2019-06-20T04:31:35.527Z,66.33
2019-06-20T04:34:06.383Z,65.75
2019-06-20T04:36:37.201Z,65.59
2019-06-20T04:39:18.783Z,65.58
2019-06-20T04:41:40.365Z,65.27
2019-06-20T04:44:11.144Z,65.34
2019-06-20T04:46:43.726Z,64.57
2019-06-20T04:49:14.569Z,64.29
2019-06-20T04:51:45.291Z,63.68
2019-06-20T04:54:16.043Z,63.03
2019-06-20T04:56:46.433Z,62.98
2019-06-20T04:59:17.183Z,62.97
2019-06-20T05:01:48.076Z,62.66
2019-06-20T05:04:18.910Z,62.37
2019-06-20T05:06:52.912Z,61.73
2019-06-20T05:09:23.780Z,60.57
2019-06-20T05:11:54.239Z,59.75
2019-06-20T05:14:24.623Z,58.80
2019-06-20T05:16:55.054Z,58.03
2019-06-20T05:19:25.550Z,57.58
2019-06-20T05:21:55.977Z,56.65
2019-06-20T05:24:26.739Z,56.40
2019-06-20T05:26:57.541Z,56.59
2019-06-20T05:30:07.449Z,56.86
2019-06-20T05:32:38.251Z,57.61
2019-06-20T05:35:09.191Z,57.59
2019-06-20T05:37:40.123Z,58.36
2019-06-20T05:40:10.987Z,58.57
2019-06-20T05:42:41.691Z,59.13
2019-06-20T05:45:12.595Z,60.02
2019-06-20T05:47:43.528Z,59.82
2019-06-20T05:50:14.391Z,60.15
2019-06-20T05:52:44.783Z,60.18
2019-06-20T05:55:15.757Z,59.60
2019-06-20T05:57:46.500Z,59.36
2019-06-20T06:00:17.364Z,59.41
2019-06-20T06:02:47.917Z,59.48
2019-06-20T06:05:19.394Z,59.52
2019-06-20T06:07:50.255Z,60.04
2019-06-20T06:10:20.779Z,60.19
2019-06-20T06:12:51.646Z,60.58
2019-06-20T06:15:22.629Z,60.68
2019-06-20T06:17:53.086Z,60.70
2019-06-20T06:20:24.145Z,61.35
2019-06-20T06:22:54.945Z,63.12
2019-06-20T06:25:25.364Z,63.76
2019-06-20T06:27:55.831Z,66.13
2019-06-20T06:30:26.847Z,70.81
2019-06-20T06:32:57.610Z,73.52
2019-06-20T06:35:28.431Z,75.54
2019-06-20T06:37:58.960Z,76.80
2019-06-20T06:40:29.800Z,78.55
2019-06-20T06:43:00.678Z,79.07
2019-06-20T06:45:31.479Z,79.73
2019-06-20T06:48:02.421Z,79.75
2019-06-20T06:50:37.057Z,79.22
2019-06-20T06:53:32.187Z,78.62
2019-06-20T06:56:02.681Z,78.36
2019-06-20T06:58:33.419Z,78.29
2019-06-20T07:01:05.426Z,77.78
2019-06-20T07:03:54.732Z,77.69
2019-06-20T07:06:31.497Z,77.37
2019-06-20T07:09:02.360Z,77.29
2019-06-20T07:11:33.632Z,77.29
2019-06-20T07:14:08.320Z,77.18
2019-06-20T07:16:40.609Z,76.34
2019-06-20T07:19:11.000Z,76.28
2019-06-20T07:21:41.773Z,75.65
2019-06-20T07:24:12.589Z,75.29
2019-06-20T07:26:43.631Z,74.66
2019-06-20T07:29:14.466Z,73.17
2019-06-20T07:31:45.307Z,73.52
2019-06-20T07:34:16.416Z,72.53
2019-06-20T07:36:47.332Z,71.79
2019-06-20T07:39:18.031Z,71.91
2019-06-20T07:41:51.045Z,72.00
2019-06-20T07:44:21.640Z,71.55
2019-06-20T07:46:52.689Z,71.04
2019-06-20T07:49:23.524Z,71.12
2019-06-20T07:51:55.557Z,70.47
2019-06-20T07:54:28.347Z,70.33
2019-06-20T07:57:00.323Z,69.89
2019-06-20T07:59:35.287Z,69.62
2019-06-20T08:02:05.913Z,70.19
2019-06-20T08:04:36.368Z,69.82
2019-06-20T08:07:07.034Z,69.98
2019-06-20T08:09:44.784Z,69.95
2019-06-20T08:12:10.217Z,69.49
2019-06-20T08:14:41.060Z,69.17
2019-06-20T08:17:12.056Z,68.93
2019-06-20T08:19:42.890Z,68.34
2019-06-20T08:22:13.728Z,67.89
2019-06-20T08:24:44.776Z,67.98
2019-06-20T08:27:15.463Z,67.81
2019-06-20T08:29:46.420Z,67.59
2019-06-20T08:32:20.703Z,67.60
2019-06-20T08:34:51.525Z,66.73
2019-06-20T08:37:22.573Z,66.09
2019-06-20T08:39:53.604Z,66.48
2019-06-20T08:42:24.425Z,66.88
2019-06-20T08:44:56.229Z,66.84
2019-06-20T08:47:26.967Z,66.28
2019-06-20T08:50:03.855Z,66.17
2019-06-20T08:52:34.993Z,65.99
2019-06-20T08:55:07.252Z,66.21
2019-06-20T08:57:37.823Z,66.10
2019-06-20T09:00:20.672Z,66.80
2019-06-20T09:02:51.599Z,66.33
2019-06-20T09:05:23.410Z,65.22
2019-06-20T09:07:55.359Z,66.00
2019-06-20T09:10:33.865Z,65.88
2019-06-20T09:13:05.013Z,65.62
2019-06-20T09:15:36.319Z,65.28
2019-06-20T09:18:08.128Z,67.03
2019-06-20T09:20:39.129Z,69.40
2019-06-20T09:23:16.330Z,69.30
2019-06-20T09:25:47.165Z,68.57
2019-06-20T09:28:18.000Z,68.67
2019-06-20T09:30:49.045Z,68.57
2019-06-20T09:33:19.875Z,67.84
2019-06-20T09:35:52.150Z,66.62
2019-06-20T09:38:24.423Z,65.48
2019-06-20T09:40:55.351Z,63.95
2019-06-20T09:43:27.867Z,63.36
2019-06-20T09:45:58.453Z,63.50
2019-06-20T09:48:29.193Z,63.55
2019-06-20T09:50:59.958Z,63.56
2019-06-20T09:53:30.502Z,63.67
2019-06-20T09:56:01.235Z,63.96
2019-06-20T09:58:32.118Z,63.47
2019-06-20T10:01:04.870Z,63.19
2019-06-20T10:03:35.635Z,62.39
2019-06-20T10:06:13.771Z,62.32
2019-06-20T10:08:38.950Z,61.97
2019-06-20T10:11:09.327Z,61.91
2019-06-20T10:13:40.115Z,61.97
2019-06-20T10:16:10.915Z,62.14
2019-06-20T10:18:41.681Z,62.30
2019-06-20T10:21:12.415Z,62.95
2019-06-20T10:23:43.372Z,62.90
2019-06-20T10:26:14.088Z,63.53
2019-06-20T10:28:45.813Z,63.99
2019-06-20T10:31:16.933Z,64.13
2019-06-20T10:33:48.440Z,64.29
2019-06-20T10:36:19.150Z,64.63
2019-06-20T10:38:50.374Z,64.83
2019-06-20T10:41:21.344Z,64.40
2019-06-20T10:43:51.909Z,63.31
2019-06-20T10:46:22.760Z,62.50
2019-06-20T10:48:56.649Z,62.44
2019-06-20T10:51:49.632Z,61.72
2019-06-20T10:54:10.728Z,61.50
2019-06-20T10:56:42.252Z,61.35
2019-06-20T10:59:14.319Z,60.35
2019-06-20T11:01:46.525Z,59.32
2019-06-20T11:04:19.127Z,58.70
2019-06-20T11:06:50.034Z,58.87
2019-06-20T11:09:20.873Z,58.57
2019-06-20T11:11:51.631Z,59.16
2019-06-20T11:14:22.533Z,59.91
2019-06-20T11:16:53.065Z,59.85
2019-06-20T11:19:23.597Z,59.13
2019-06-20T11:21:54.560Z,58.79
2019-06-20T11:24:25.555Z,58.71
2019-06-20T11:26:56.094Z,58.76
2019-06-20T11:29:26.951Z,58.48
2019-06-20T11:31:57.759Z,58.76
2019-06-20T11:34:28.591Z,59.08
2019-06-20T11:36:59.353Z,58.82
2019-06-20T11:39:30.284Z,58.61
2019-06-20T11:42:02.530Z,58.46
2019-06-20T11:44:35.381Z,57.43
2019-06-20T11:47:07.299Z,57.79
2019-06-20T11:49:40.464Z,57.13
2019-06-20T11:52:11.229Z,56.55
2019-06-20T11:54:42.512Z,55.76
2019-06-20T11:57:13.413Z,55.41
2019-06-20T11:59:43.926Z,55.69
2019-06-20T12:02:17.111Z,55.44
2019-06-20T12:04:49.524Z,54.47
2019-06-20T12:07:20.438Z,54.47
2019-06-20T12:09:51.271Z,54.64
2019-06-20T12:12:21.842Z,54.18
2019-06-20T12:14:52.882Z,53.23
2019-06-20T12:17:23.684Z,53.12
2019-06-20T12:19:54.469Z,52.62
2019-06-20T12:22:25.257Z,52.71
2019-06-20T12:24:55.715Z,52.40
2019-06-20T12:27:32.216Z,51.46
2019-06-20T12:30:05.285Z,51.67
2019-06-20T12:32:36.191Z,52.31
2019-06-20T12:35:07.303Z,52.34
2019-06-20T12:37:40.356Z,52.68
2019-06-20T12:40:11.499Z,52.39
2019-06-20T12:42:43.187Z,52.25
2019-06-20T12:45:17.413Z,52.27
2019-06-20T12:47:47.844Z,52.25
2019-06-20T12:50:18.625Z,52.07
2019-06-20T12:52:49.670Z,52.50
2019-06-20T12:55:22.580Z,52.09
2019-06-20T12:57:53.460Z,52.87
2019-06-20T13:00:24.523Z,52.41
2019-06-20T13:02:55.333Z,52.36
2019-06-20T13:05:28.590Z,52.57
2019-06-20T13:07:59.419Z,52.83
2019-06-20T13:10:29.875Z,52.67
2019-06-20T13:13:00.764Z,53.00
2019-06-20T13:15:31.194Z,53.08
2019-06-20T13:18:02.026Z,52.77
2019-06-20T13:20:32.534Z,53.51
2019-06-20T13:23:03.572Z,53.71
2019-06-20T13:25:33.950Z,53.90
2019-06-20T13:28:04.940Z,53.99
2019-06-20T13:30:35.758Z,54.45
2019-06-20T13:33:06.257Z,54.85
2019-06-20T13:35:37.035Z,54.89
2019-06-20T13:38:07.455Z,54.86
2019-06-20T13:40:39.586Z,54.70
2019-06-20T13:43:09.940Z,55.52
2019-06-20T13:45:42.229Z,56.13
2019-06-20T13:48:13.355Z,56.18
2019-06-20T13:50:45.269Z,56.39
2019-06-20T13:53:16.532Z,56.19
2019-06-20T13:55:47.755Z,56.64
2019-06-20T13:58:19.461Z,56.57
2019-06-20T14:00:51.006Z,58.36
2019-06-20T14:03:21.755Z,60.61
2019-06-20T14:05:53.686Z,62.08
2019-06-20T14:08:25.279Z,62.24
2019-06-20T14:10:56.607Z,62.36
2019-06-20T14:13:27.095Z,61.96
2019-06-20T14:15:57.571Z,60.92
2019-06-20T14:18:30.387Z,60.30
2019-06-20T14:21:01.431Z,59.47
2019-06-20T14:23:31.891Z,59.71
2019-06-20T14:26:02.650Z,59.35
2019-06-20T14:28:33.544Z,59.95
2019-06-20T14:31:04.392Z,59.18
2019-06-20T14:33:35.097Z,59.06
2019-06-20T14:36:05.934Z,59.66
2019-06-20T14:38:36.393Z,59.74
2019-06-20T14:41:07.203Z,60.37
2019-06-20T14:43:38.037Z,60.63
2019-06-20T14:46:08.568Z,61.21
2019-06-20T14:48:39.105Z,61.13
2019-06-20T14:51:10.447Z,61.21
2019-06-20T14:53:41.324Z,61.51
2019-06-20T14:56:12.238Z,61.67
2019-06-20T14:58:44.768Z,61.30
2019-06-20T15:01:15.702Z,61.16
2019-06-20T15:03:47.403Z,61.13
2019-06-20T15:06:20.005Z,60.22
2019-06-20T15:08:53.573Z,59.24
2019-06-20T15:11:23.584Z,58.52
2019-06-20T15:13:56.765Z,58.80
2019-06-20T15:16:27.637Z,58.26
2019-06-20T15:18:58.144Z,58.22
2019-06-20T15:21:29.006Z,58.12
2019-06-20T15:23:59.510Z,57.66
2019-06-20T15:26:30.522Z,57.69
2019-06-20T15:29:01.321Z,57.58
2019-06-20T15:31:32.146Z,57.28
2019-06-20T15:34:02.726Z,57.47
2019-06-20T15:36:33.605Z,57.97
2019-06-20T15:39:06.440Z,57.73
2019-06-20T15:41:37.457Z,58.66
2019-06-20T15:44:09.471Z,59.19
2019-06-20T15:46:40.378Z,59.20
2019-06-20T15:49:16.044Z,58.80
2019-06-20T15:51:43.333Z,57.99
2019-06-20T15:54:14.170Z,58.65
2019-06-20T15:56:44.909Z,58.44
2019-06-20T15:59:15.738Z,58.14
2019-06-20T16:01:46.673Z,57.26
2019-06-20T16:04:17.504Z,57.32
2019-06-20T16:06:48.593Z,57.40
2019-06-20T16:09:19.765Z,57.52
2019-06-20T16:11:50.744Z,57.68
2019-06-20T16:14:21.603Z,57.21
2019-06-20T16:16:52.093Z,56.13
2019-06-20T16:19:22.958Z,55.22
2019-06-20T16:21:53.439Z,54.36
2019-06-20T16:24:24.257Z,54.93
2019-06-20T16:26:55.322Z,55.25
2019-06-20T16:29:26.197Z,55.50
2019-06-20T16:31:57.020Z,54.37
2019-06-20T16:34:27.482Z,54.67
2019-06-20T16:37:09.819Z,54.63
2019-06-20T16:39:30.390Z,54.50
2019-06-20T16:42:00.804Z,53.02
2019-06-20T16:44:31.547Z,50.60
2019-06-20T16:47:02.354Z,51.89
2019-06-20T16:49:33.250Z,53.07
2019-06-20T16:52:03.697Z,50.91
2019-06-20T16:54:34.498Z,49.90
2019-06-20T16:57:05.387Z,48.29
2019-06-20T16:59:36.331Z,47.10
2019-06-20T17:02:07.171Z,46.59
2019-06-20T17:04:37.693Z,45.67
2019-06-20T17:07:08.192Z,45.43
2019-06-20T17:09:38.678Z,46.37
2019-06-20T17:15:58.981Z,49.28
2019-06-20T17:18:30.067Z,50.82
2019-06-20T17:21:00.955Z,50.38
2019-06-20T17:23:31.895Z,50.48
2019-06-20T17:26:02.693Z,51.16
2019-06-20T17:28:33.133Z,51.05
2019-06-20T17:31:03.578Z,51.41
2019-06-20T17:33:34.315Z,51.50
2019-06-20T17:36:17.989Z,52.15
2019-06-20T17:38:37.358Z,53.32
2019-06-20T17:41:08.152Z,54.13
2019-06-20T17:43:38.926Z,53.82
2019-06-20T17:46:09.760Z,53.88
2019-06-20T17:48:40.315Z,54.07
2019-06-20T17:51:10.784Z,53.71
2019-06-20T17:53:41.516Z,53.34
2019-06-20T17:56:12.387Z,53.70
2019-06-20T17:58:42.840Z,53.57
2019-06-20T18:01:13.645Z,53.79
2019-06-20T18:03:44.470Z,53.78
2019-06-20T18:06:17.098Z,53.56
2019-06-20T18:08:47.933Z,53.73
2019-06-20T18:11:18.714Z,53.79
2019-06-20T18:13:49.544Z,54.26
2019-06-20T18:16:25.212Z,54.56
2019-06-20T18:18:52.607Z,54.10
2019-06-20T18:21:23.166Z,54.34
2019-06-20T18:23:53.864Z,54.35
2019-06-20T18:26:24.745Z,54.81
2019-06-20T18:28:55.485Z,55.42
2019-06-20T18:31:26.238Z,55.19
2019-06-20T18:33:56.641Z,55.46
2019-06-20T18:36:27.093Z,55.58
2019-06-20T18:38:57.531Z,55.41
2019-06-20T18:41:28.058Z,55.68
2019-06-20T18:43:58.786Z,56.29
2019-06-20T18:46:29.624Z,56.81
2019-06-20T18:49:00.560Z,56.98
2019-06-20T18:51:31.086Z,57.04
2019-06-20T18:54:01.964Z,56.91
2019-06-20T18:56:32.926Z,56.94
2019-06-20T18:59:04.283Z,56.73
2019-06-20T19:01:35.190Z,56.97
2019-06-20T19:04:06.096Z,56.75
2019-06-20T19:06:36.824Z,57.47
2019-06-20T19:09:10.651Z,56.82
2019-06-20T19:11:41.646Z,56.69
2019-06-20T19:14:12.841Z,56.87
2019-06-20T19:16:43.958Z,57.31
2019-06-20T19:19:14.817Z,56.75
2019-06-20T19:21:45.339Z,58.13
2019-06-20T19:24:15.759Z,57.77
2019-06-20T19:26:48.083Z,57.70
2019-06-20T19:29:19.308Z,57.68
2019-06-20T19:31:49.766Z,57.86
2019-06-20T19:34:20.638Z,57.61
2019-06-20T19:36:51.086Z,57.45
2019-06-20T19:39:21.920Z,57.17
2019-06-20T19:41:52.364Z,59.02
2019-06-20T19:44:23.194Z,59.30
2019-06-20T19:46:54.157Z,59.52
2019-06-20T19:49:25.068Z,59.85
2019-06-20T19:51:55.977Z,59.41
2019-06-20T19:54:26.816Z,59.50
2019-06-20T19:56:57.578Z,59.17
2019-06-20T19:59:28.503Z,58.69
2019-06-20T20:01:59.316Z,58.84
2019-06-20T20:04:29.905Z,58.55
2019-06-20T20:07:00.796Z,58.66
2019-06-20T20:09:31.558Z,58.40
2019-06-20T20:12:02.305Z,58.60
2019-06-20T20:14:33.230Z,58.89
2019-06-20T20:17:04.084Z,58.89
2019-06-20T20:19:34.992Z,58.90
2019-06-20T20:22:06.698Z,59.05
2019-06-20T20:24:37.780Z,58.89
2019-06-20T20:27:08.228Z,59.21
2019-06-20T20:29:39.052Z,59.33
2019-06-20T20:32:09.811Z,59.33
2019-06-20T20:34:40.484Z,59.18
2019-06-20T20:37:11.307Z,59.46
2019-06-20T20:39:41.796Z,59.36
2019-06-20T20:42:12.317Z,59.43
2019-06-20T20:44:43.129Z,59.30
2019-06-20T20:47:13.743Z,59.45
2019-06-20T20:49:44.398Z,59.39
2019-06-20T20:52:15.766Z,59.53
2019-06-20T20:54:46.688Z,59.62
2019-06-20T20:57:17.967Z,59.56
2019-06-20T20:59:49.184Z,60.07
2019-06-20T21:02:19.645Z,59.49
2019-06-20T21:04:50.448Z,59.84
2019-06-20T21:07:21.288Z,60.12
2019-06-20T21:09:51.920Z,60.06
2019-06-20T21:12:22.439Z,60.38
2019-06-20T21:14:53.393Z,60.35
2019-06-20T21:17:26.834Z,60.38
2019-06-20T21:19:57.577Z,60.37
2019-06-20T21:22:28.381Z,60.71
2019-06-20T21:24:59.504Z,60.71
2019-06-20T21:27:32.275Z,60.37
2019-06-20T21:30:03.417Z,60.39
2019-06-20T21:32:34.300Z,60.21
2019-06-20T21:35:09.734Z,60.61
2019-06-20T21:37:40.532Z,60.82
2019-06-20T21:40:11.318Z,60.65
2019-06-20T21:42:44.621Z,60.59
2019-06-20T21:45:17.056Z,60.48
2019-06-20T21:47:48.615Z,60.63
2019-06-20T21:50:19.550Z,60.34
2019-06-20T21:52:50.902Z,60.33
2019-06-20T21:55:21.735Z,60.32
2019-06-20T21:57:52.995Z,60.35
2019-06-20T22:00:39.959Z,60.65
2019-06-20T22:03:10.955Z,61.55
2019-06-20T22:05:41.408Z,61.87
2019-06-20T22:08:15.880Z,62.05
2019-06-20T22:10:46.538Z,62.57
2019-06-20T22:13:17.390Z,62.57
2019-06-20T22:15:49.678Z,63.90
2019-06-20T22:18:20.523Z,63.99
2019-06-20T22:20:51.314Z,64.52
2019-06-20T22:23:23.663Z,65.76
2019-06-20T22:25:54.317Z,66.40
2019-06-20T22:28:25.140Z,67.09
2019-06-20T22:30:57.218Z,67.78
2019-06-20T22:33:28.965Z,68.01
2019-06-20T22:35:59.706Z,67.92
2019-06-20T22:38:30.493Z,69.53
2019-06-20T22:41:01.314Z,70.31
2019-06-20T22:43:33.406Z,70.93
2019-06-20T22:46:04.423Z,71.37
2019-06-20T22:48:38.576Z,71.47
2019-06-20T22:51:09.447Z,71.49
2019-06-20T22:53:41.494Z,71.16
2019-06-20T22:56:13.878Z,72.54
2019-06-20T22:58:44.747Z,72.54
2019-06-20T23:01:15.366Z,72.68
2019-06-20T23:03:46.284Z,73.75
2019-06-20T23:06:16.686Z,74.56
2019-06-20T23:08:47.859Z,74.87
2019-06-20T23:11:23.525Z,74.57
2019-06-20T23:13:54.438Z,74.30
2019-06-20T23:16:26.338Z,73.62
2019-06-20T23:18:57.280Z,73.61
2019-06-20T23:21:27.874Z,73.46
2019-06-20T23:23:58.609Z,73.37
2019-06-20T23:26:29.427Z,73.55
2019-06-20T23:29:20.336Z,74.37
2019-06-20T23:31:52.220Z,74.21
2019-06-20T23:34:30.224Z,74.25
2019-06-20T23:37:12.200Z,74.07
2019-06-20T23:39:33.325Z,74.38
2019-06-20T23:42:04.158Z,74.60
2019-06-20T23:44:34.890Z,74.72
2019-06-20T23:47:05.505Z,74.72
2019-06-20T23:49:36.364Z,75.34
2019-06-20T23:52:08.758Z,75.21
2019-06-20T23:54:39.302Z,74.83
2019-06-20T23:57:10.134Z,74.71
2019-06-20T23:59:40.963Z,74.40
